Home > Products > Valid Products > TAF

000
FTUS45 KBYZ 040527
TAFLVM
TAF
KLVM 040527Z 0406/0506 26008KT P6SM SKC
     FM041600 24012KT P6SM FEW090 SCT200=



000
FTUS45 KBYZ 040527
TAFBIL
TAF
KBIL 040527Z 0406/0506 21008KT P6SM SKC=



000
FTUS45 KBYZ 040527
TAFSHR
TAF
KSHR 040527Z 0406/0506 VRB04KT P6SM SKC=



000
FTUS45 KBYZ 040527
TAFMLS
TAF
KMLS 040527Z 0406/0506 15005KT P6SM SKC=



000
FTUS45 KBYZ 040527
TAFMLS
TAF
KMLS 040527Z 0406/0506 15005KT P6SM SKC=



000
FTUS45 KBYZ 040527
TAFLVM
TAF
KLVM 040527Z 0406/0506 26008KT P6SM SKC
     FM041600 24012KT P6SM FEW090 SCT200=



000
FTUS45 KBYZ 040527
TAFBIL
TAF
KBIL 040527Z 0406/0506 21008KT P6SM SKC=



000
FTUS45 KBYZ 040527
TAFSHR
TAF
KSHR 040527Z 0406/0506 VRB04KT P6SM SKC=



000
FTUS45 KBYZ 032321
TAFLVM
TAF
KLVM 032321Z 0400/0424 24006KT P6SM SKC
     FM041600 24012KT P6SM FEW090 SCT200=



000
FTUS45 KBYZ 032321
TAFSHR
TAF
KSHR 032321Z 0400/0424 VRB05KT P6SM SKC=



000
FTUS45 KBYZ 032321
TAFBIL
TAF
KBIL 032321Z 0400/0424 07005KT P6SM FEW200
     FM040400 23006KT P6SM FEW200=



000
FTUS45 KBYZ 032321
TAFMLS
TAF
KMLS 032321Z 0400/0424 34007KT P6SM SKC
     FM040700 15006KT P6SM FEW200=



000
FTUS45 KBYZ 032321
TAFLVM
TAF
KLVM 032321Z 0400/0424 24006KT P6SM SKC
     FM041600 24012KT P6SM FEW090 SCT200=



000
FTUS45 KBYZ 032321
TAFSHR
TAF
KSHR 032321Z 0400/0424 VRB05KT P6SM SKC=



000
FTUS45 KBYZ 032321
TAFMLS
TAF
KMLS 032321Z 0400/0424 34007KT P6SM SKC
     FM040700 15006KT P6SM FEW200=



000
FTUS45 KBYZ 032321
TAFBIL
TAF
KBIL 032321Z 0400/0424 07005KT P6SM FEW200
     FM040400 23006KT P6SM FEW200=



000
FTUS45 KBYZ 031720
TAFBIL
TAF
KBIL 031720Z 0318/0418 21008KT P6SM FEW200=



000
FTUS45 KBYZ 031720
TAFSHR
TAF
KSHR 031720Z 0318/0418 VRB03KT P6SM SKC=



000
FTUS45 KBYZ 031720
TAFMLS
TAF
KMLS 031720Z 0318/0418 VRB06KT P6SM SKC=



000
FTUS45 KBYZ 031720
TAFLVM
TAF
KLVM 031720Z 0318/0418 26009KT P6SM FEW200=



000
FTUS45 KBYZ 031720
TAFBIL
TAF
KBIL 031720Z 0318/0418 21008KT P6SM FEW200=



000
FTUS45 KBYZ 031720
TAFMLS
TAF
KMLS 031720Z 0318/0418 VRB06KT P6SM SKC=



000
FTUS45 KBYZ 031720
TAFLVM
TAF
KLVM 031720Z 0318/0418 26009KT P6SM FEW200=



000
FTUS45 KBYZ 031720
TAFSHR
TAF
KSHR 031720Z 0318/0418 VRB03KT P6SM SKC=



000
FTUS45 KBYZ 031120
TAFSHR
TAF
KSHR 031120Z 0312/0412 VRB03KT P6SM SKC=



000
FTUS45 KBYZ 031120
TAFMLS
TAF
KMLS 031120Z 0312/0412 26010KT P6SM SKC
     FM040200 19008KT P6SM SKC=



000
FTUS45 KBYZ 031120
TAFBIL
TAF
KBIL 031120Z 0312/0412 21012KT P6SM FEW200=



000
FTUS45 KBYZ 031120
TAFLVM
TAF
KLVM 031120Z 0312/0412 VRB04KT P6SM SKC
     FM032000 26009KT P6SM FEW200=



000
FTUS45 KBYZ 030523
TAFBIL
TAF
KBIL 030523Z 0306/0406 VRB04KT P6SM SKC
     FM030900 24009KT P6SM SKC=



000
FTUS45 KBYZ 030523
TAFMLS
TAF
KMLS 030523Z 0306/0406 33006KT P6SM SKC=



000
FTUS45 KBYZ 030523
TAFSHR
TAF
KSHR 030523Z 0306/0406 VRB04KT P6SM SKC=



000
FTUS45 KBYZ 030523
TAFLVM
TAF
KLVM 030523Z 0306/0406 12007KT P6SM SKC
     FM031200 29009KT P6SM SKC=



000
FTUS45 KBYZ 030523
TAFBIL
TAF
KBIL 030523Z 0306/0406 VRB04KT P6SM SKC
     FM030900 24009KT P6SM SKC=



000
FTUS45 KBYZ 030523
TAFMLS
TAF
KMLS 030523Z 0306/0406 33006KT P6SM SKC=



000
FTUS45 KBYZ 030523
TAFSHR
TAF
KSHR 030523Z 0306/0406 VRB04KT P6SM SKC=



000
FTUS45 KBYZ 030523
TAFLVM
TAF
KLVM 030523Z 0306/0406 12007KT P6SM SKC
     FM031200 29009KT P6SM SKC=



000
FTUS45 KBYZ 022333
TAFBIL
TAF
KBIL 022333Z 0300/0324 06006KT P6SM FEW200
     FM030600 22006KT P6SM FEW200=



000
FTUS45 KBYZ 022333
TAFMLS
TAF
KMLS 022333Z 0300/0324 33012KT P6SM FEW080 SCT200
     FM030400 30006KT P6SM FEW200=



000
FTUS45 KBYZ 022333
TAFLVM
TAF
KLVM 022333Z 0300/0324 29008KT P6SM FEW200=



000
FTUS45 KBYZ 022333
TAFSHR
TAF
KSHR 022333Z 0300/0324 33012G20KT P6SM SCT200
     FM030300 30006KT P6SM FEW200=



000
FTUS45 KBYZ 022333
TAFLVM
TAF
KLVM 022333Z 0300/0324 29008KT P6SM FEW200=



000
FTUS45 KBYZ 022333
TAFSHR
TAF
KSHR 022333Z 0300/0324 33012G20KT P6SM SCT200
     FM030300 30006KT P6SM FEW200=



000
FTUS45 KBYZ 022333
TAFMLS
TAF
KMLS 022333Z 0300/0324 33012KT P6SM FEW080 SCT200
     FM030400 30006KT P6SM FEW200=



000
FTUS45 KBYZ 022333
TAFBIL
TAF
KBIL 022333Z 0300/0324 06006KT P6SM FEW200
     FM030600 22006KT P6SM FEW200=



000
FTUS45 KBYZ 021720
TAFLVM
TAF
KLVM 021720Z 0218/0318 VRB05KT P6SM FEW080 FEW200=



000
FTUS45 KBYZ 021720
TAFBIL
TAF
KBIL 021720Z 0218/0318 VRB05KT P6SM FEW200=



000
FTUS45 KBYZ 021720
TAFMLS
TAF
KMLS 021720Z 0218/0318 32011KT P6SM FEW070 SCT200=



000
FTUS45 KBYZ 021720
TAFLVM
TAF
KLVM 021720Z 0218/0318 VRB05KT P6SM FEW080 FEW200=



000
FTUS45 KBYZ 021720
TAFBIL
TAF
KBIL 021720Z 0218/0318 VRB05KT P6SM FEW200=



000
FTUS45 KBYZ 021720
TAFMLS
TAF
KMLS 021720Z 0218/0318 32011KT P6SM FEW070 SCT200=



000
FTUS45 KBYZ 021720
TAFSHR
TAF
KSHR 021720Z 0218/0318 33011KT P6SM FEW060 SCT200=



000
FTUS45 KBYZ 021120
TAFMLS
TAF
KMLS 021120Z 0212/0312 17003KT P6SM SKC
     FM021500 32010KT P6SM SCT200
     FM021800 32016KT P6SM SCT150
     FM030300 30006KT P6SM FEW200=



000
FTUS45 KBYZ 021120
TAFLVM
TAF
KLVM 021120Z 0212/0312 29005KT P6SM SKC
     FM030200 VRB03KT P6SM SKC=



000
FTUS45 KBYZ 021120
TAFBIL
TAF
KBIL 021120Z 0212/0312 24010KT P6SM FEW250
     FM021800 01009KT P6SM FEW100
     FM030400 21007KT P6SM SKC=



000
FTUS45 KBYZ 021120
TAFSHR
TAF
KSHR 021120Z 0212/0312 00000KT P6SM SKC
     FM021600 31013KT P6SM SKC
     FM030300 26007KT P6SM SKC=



000
FTUS45 KBYZ 020533
TAFMLS
TAF
KMLS 020533Z 0206/0306 23007KT P6SM SKC
     FM021600 32016KT P6SM SCT200
     FM030300 30006KT P6SM FEW200=



000
FTUS45 KBYZ 020533
TAFLVM
TAF
KLVM 020533Z 0206/0306 10007KT P6SM SKC
     FM020900 27006KT P6SM SKC
     FM030200 VRB03KT P6SM SKC=



000
FTUS45 KBYZ 020533
TAFBIL
TAF
KBIL 020533Z 0206/0306 23008KT P6SM SKC
     FM022000 02009KT P6SM FEW100
     FM030400 21007KT P6SM SKC=



000
FTUS45 KBYZ 020533
TAFSHR
TAF
KSHR 020533Z 0206/0306 22003KT P6SM SKC
     FM021600 31013KT P6SM SKC
     FM030300 26007KT P6SM SKC=



000
FTUS45 KBYZ 012330
TAFMLS
TAF
KMLS 012330Z 0200/0224 06006KT P6SM FEW200
     FM020400 22006KT P6SM SKC
     FM021600 32016KT P6SM SCT200=



000
FTUS45 KBYZ 012330
TAFSHR
TAF
KSHR 012330Z 0200/0224 VRB04KT P6SM FEW070 FEW200
     FM021600 31012KT P6SM SKC=



000
FTUS45 KBYZ 012330
TAFLVM
TAF
KLVM 012330Z 0200/0224 08014KT P6SM FEW200
     FM020600 32012KT P6SM SKC
     FM021600 27012KT P6SM SKC=



000
FTUS45 KBYZ 012330
TAFBIL
TAF
KBIL 012330Z 0200/0224 07008KT P6SM SCT200
     FM020400 21008KT P6SM SKC=



000
FTUS45 KBYZ 012330
TAFMLS
TAF
KMLS 012330Z 0200/0224 06006KT P6SM FEW200
     FM020400 22006KT P6SM SKC
     FM021600 32016KT P6SM SCT200=



000
FTUS45 KBYZ 012330
TAFSHR
TAF
KSHR 012330Z 0200/0224 VRB04KT P6SM FEW070 FEW200
     FM021600 31012KT P6SM SKC=



000
FTUS45 KBYZ 012330
TAFBIL
TAF
KBIL 012330Z 0200/0224 07008KT P6SM SCT200
     FM020400 21008KT P6SM SKC=



000
FTUS45 KBYZ 012330
TAFLVM
TAF
KLVM 012330Z 0200/0224 08014KT P6SM FEW200
     FM020600 32012KT P6SM SKC
     FM021600 27012KT P6SM SKC=



000
FTUS45 KBYZ 011722
TAFSHR
TAF
KSHR 011722Z 0118/0218 VRB05KT P6SM FEW070 FEW200=



000
FTUS45 KBYZ 011722
TAFBIL
TAF
KBIL 011722Z 0118/0218 21008KT P6SM FEW070 FEW200=



000
FTUS45 KBYZ 011722
TAFMLS
TAF
KMLS 011722Z 0118/0218 VRB05KT P6SM FEW080=



000
FTUS45 KBYZ 011722
TAFLVM
TAF
KLVM 011722Z 0118/0218 08014G19KT P6SM FEW060
     FM012300 03006KT P6SM SKC=



000
FTUS45 KBYZ 011126
TAFSHR
TAF
KSHR 011126Z 0112/0212 VRB03KT P6SM OVC070
     FM011800 19005KT P6SM SCT150=



000
FTUS45 KBYZ 011126
TAFBIL
TAF
KBIL 011126Z 0112/0212 VRB03KT P6SM OVC070
     FM011500 08008KT P6SM FEW070
     FM020300 23008KT P6SM FEW100=



000
FTUS45 KBYZ 011126
TAFLVM
TAF
KLVM 011126Z 0112/0212 12005KT P6SM BKN060
     FM011800 07014KT P6SM SKC=



000
FTUS45 KBYZ 011126
TAFMLS
TAF
KMLS 011126Z 0112/0212 VRB03KT P6SM SKC
     FM020300 03006KT P6SM SKC=



    US Dept of Commerce
    National Oceanic and Atmospheric Administration
    National Weather Service
    1325 East West Highway
    Silver Spring, MD 20910
    Page Author: NWS Internet Services Team
Disclaimer
Information Quality
Credits
Glossary
Privacy Policy
Freedom of Information Act (FOIA)
About Us
Career Opportunities